createdAt,value
2018-12-19T00:00:28.710Z,94.60
2018-12-19T00:02:59.031Z,94.60
2018-12-19T00:05:28.995Z,94.70
2018-12-19T00:07:56.986Z,94.70
2018-12-19T00:10:24.983Z,94.50
2018-12-19T00:12:53.958Z,94.50
2018-12-19T00:15:21.849Z,94.30
2018-12-19T00:17:51.873Z,94.10
2018-12-19T00:20:20.026Z,94.10
2018-12-19T00:22:48.044Z,94.10
2018-12-19T00:25:16.191Z,95.00
2018-12-19T00:27:46.272Z,95.00
2018-12-19T00:30:16.186Z,94.70
2018-12-19T00:32:46.399Z,94.50
2018-12-19T00:35:16.315Z,94.40
2018-12-19T00:37:44.370Z,94.40
2018-12-19T00:40:12.580Z,95.10
2018-12-19T00:42:40.854Z,94.40
2018-12-19T00:45:08.836Z,93.50
2018-12-19T00:47:36.814Z,93.60
2018-12-19T00:50:05.823Z,93.70
2018-12-19T00:52:34.077Z,93.90
2018-12-19T00:55:01.906Z,93.90
2018-12-19T00:57:29.923Z,94.20
2018-12-19T01:02:33.869Z,94.40
2018-12-19T01:05:01.916Z,94.10
2018-12-19T01:07:31.243Z,94.90
2018-12-19T01:09:59.255Z,94.80
2018-12-19T01:12:27.286Z,94.40
2018-12-19T01:14:55.150Z,96.30
2018-12-19T01:17:23.096Z,95.30
2018-12-19T01:19:51.142Z,95.10
2018-12-19T01:22:19.306Z,95.60
2018-12-19T01:25:04.339Z,95.60
2018-12-19T01:27:32.358Z,95.40
2018-12-19T01:30:00.156Z,95.60
2018-12-19T01:32:28.032Z,96.00
2018-12-19T01:34:55.957Z,95.60
2018-12-19T01:37:23.871Z,95.30
2018-12-19T01:39:51.884Z,95.40
2018-12-19T01:42:19.966Z,95.00
2018-12-19T01:44:47.834Z,94.90
2018-12-19T01:47:15.645Z,94.80
2018-12-19T01:49:44.497Z,94.60
2018-12-19T01:52:12.537Z,94.40
2018-12-19T01:54:40.504Z,94.40
2018-12-19T01:57:08.341Z,94.20
2018-12-19T01:59:36.356Z,94.40
2018-12-19T02:02:04.306Z,95.30
2018-12-19T02:04:33.441Z,95.10
2018-12-19T02:07:01.565Z,94.90
2018-12-19T02:09:30.105Z,95.50
2018-12-19T02:11:57.966Z,95.30
2018-12-19T02:14:25.807Z,95.00
2018-12-19T02:16:54.059Z,95.00
2018-12-19T02:19:21.919Z,95.00
2018-12-19T02:21:49.745Z,95.00
2018-12-19T02:24:17.701Z,95.10
2018-12-19T02:26:45.744Z,95.30
2018-12-19T02:29:13.813Z,95.00
2018-12-19T02:31:46.112Z,94.90
2018-12-19T02:34:14.257Z,94.80
2018-12-19T02:36:42.225Z,94.70
2018-12-19T02:39:10.053Z,94.70
2018-12-19T02:41:37.964Z,94.80
2018-12-19T02:44:05.973Z,94.80
2018-12-19T02:46:33.915Z,94.80
2018-12-19T02:49:01.818Z,94.80
2018-12-19T02:51:29.625Z,94.90
2018-12-19T02:53:57.493Z,95.10
2018-12-19T02:56:25.410Z,95.20
2018-12-19T02:58:53.339Z,95.20
2018-12-19T03:01:21.436Z,95.20
2018-12-19T03:03:49.497Z,95.20
2018-12-19T03:06:17.848Z,95.30
2018-12-19T03:08:45.752Z,95.30
2018-12-19T03:13:57.402Z,95.40
2018-12-19T03:16:26.544Z,95.40
2018-12-19T03:18:54.349Z,95.40
2018-12-19T03:21:22.555Z,95.50
2018-12-19T03:23:50.362Z,95.90
2018-12-19T03:26:18.229Z,95.70
2018-12-19T03:28:46.097Z,95.80
2018-12-19T03:31:13.909Z,95.70
2018-12-19T03:33:41.717Z,95.70
2018-12-19T03:36:09.980Z,95.60
2018-12-19T03:38:37.880Z,95.60
2018-12-19T03:41:05.740Z,95.60
2018-12-19T03:43:33.871Z,95.50
2018-12-19T03:46:01.737Z,95.60
2018-12-19T03:48:36.316Z,95.60
2018-12-19T03:51:04.384Z,95.60
2018-12-19T03:53:32.171Z,95.60
2018-12-19T03:56:00.999Z,95.50
2018-12-19T03:58:28.769Z,95.50
2018-12-19T04:00:56.934Z,95.50
2018-12-19T04:03:24.934Z,95.50
2018-12-19T04:05:54.005Z,95.50
2018-12-19T04:08:21.897Z,95.60
2018-12-19T04:10:49.727Z,95.60
2018-12-19T04:13:17.564Z,95.60
2018-12-19T04:15:45.346Z,95.90
2018-12-19T04:18:13.211Z,95.60
2018-12-19T04:20:40.983Z,95.60
2018-12-19T04:23:09.306Z,95.60
2018-12-19T04:25:38.228Z,95.60
2018-12-19T04:28:06.171Z,95.60
2018-12-19T04:30:36.933Z,95.60
2018-12-19T04:33:04.897Z,95.50
2018-12-19T04:35:32.929Z,95.60
2018-12-19T04:38:00.900Z,95.60
2018-12-19T04:40:28.703Z,95.60
2018-12-19T04:42:56.659Z,95.60
2018-12-19T04:45:24.608Z,95.60
2018-12-19T04:47:53.661Z,95.70
2018-12-19T04:50:21.626Z,95.70
2018-12-19T04:52:49.577Z,95.70
2018-12-19T04:55:17.520Z,95.70
2018-12-19T04:57:45.371Z,95.80
2018-12-19T05:00:13.471Z,95.80
2018-12-19T05:02:41.348Z,95.90
2018-12-19T05:05:09.506Z,95.90
2018-12-19T05:07:37.374Z,96.20
2018-12-19T05:10:12.150Z,95.90
2018-12-19T05:12:35.592Z,95.90
2018-12-19T05:15:04.030Z,95.90
2018-12-19T05:17:32.038Z,95.90
2018-12-19T05:20:00.218Z,95.90
2018-12-19T05:22:28.025Z,95.90
2018-12-19T05:24:55.861Z,95.90
2018-12-19T05:27:23.792Z,96.30
2018-12-19T05:29:53.190Z,96.20
2018-12-19T05:32:21.466Z,96.00
2018-12-19T05:34:49.686Z,96.00
2018-12-19T05:37:17.556Z,96.00
2018-12-19T05:39:45.381Z,96.00
2018-12-19T05:42:13.158Z,96.00
2018-12-19T05:44:41.243Z,96.10
2018-12-19T05:47:09.957Z,96.00
2018-12-19T05:49:38.081Z,96.10
2018-12-19T05:52:05.849Z,96.00
2018-12-19T05:54:33.620Z,96.10
2018-12-19T05:57:01.609Z,96.00
2018-12-19T05:59:29.396Z,96.00
2018-12-19T06:01:59.263Z,96.10
2018-12-19T06:04:27.056Z,96.00
2018-12-19T06:06:55.034Z,96.10
2018-12-19T06:09:23.175Z,96.00
2018-12-19T06:11:50.949Z,96.00
2018-12-19T06:14:24.977Z,96.00
2018-12-19T06:16:52.853Z,96.10
2018-12-19T06:19:20.607Z,96.40
2018-12-19T06:21:48.414Z,96.30
2018-12-19T06:24:16.261Z,96.20
2018-12-19T06:26:43.989Z,96.20
2018-12-19T06:29:11.747Z,96.20
2018-12-19T06:31:39.503Z,96.10
2018-12-19T06:34:07.257Z,96.00
2018-12-19T06:36:35.048Z,96.00
2018-12-19T06:39:05.571Z,96.10
2018-12-19T06:41:34.756Z,96.20
2018-12-19T06:44:02.696Z,96.10
2018-12-19T06:46:30.669Z,96.80
2018-12-19T06:48:58.608Z,96.60
2018-12-19T06:51:26.354Z,97.60
2018-12-19T06:53:54.301Z,97.30
2018-12-19T06:56:23.692Z,97.20
2018-12-19T06:58:52.020Z,97.10
2018-12-19T07:01:19.844Z,96.70
2018-12-19T07:03:47.718Z,96.60
2018-12-19T07:06:15.656Z,96.80
2018-12-19T07:08:43.509Z,97.10
2018-12-19T07:11:11.468Z,97.00
2018-12-19T07:13:39.336Z,96.20
2018-12-19T07:16:07.116Z,96.60
2018-12-19T07:18:34.989Z,96.70
2018-12-19T07:21:02.883Z,95.90
2018-12-19T07:23:30.814Z,96.70
2018-12-19T07:25:58.666Z,96.50
2018-12-19T07:28:26.549Z,95.90
2018-12-19T07:30:54.703Z,96.30
2018-12-19T07:33:22.549Z,95.90
2018-12-19T07:35:50.570Z,95.50
2018-12-19T07:38:19.593Z,95.00
2018-12-19T07:40:47.412Z,95.10
2018-12-19T07:43:15.220Z,95.50
2018-12-19T07:45:43.213Z,96.10
2018-12-19T07:48:11.696Z,94.90
2018-12-19T07:50:39.546Z,95.40
2018-12-19T07:53:07.479Z,94.90
2018-12-19T07:58:17.480Z,94.60
2018-12-19T08:00:46.348Z,94.20
2018-12-19T08:03:14.380Z,93.80
2018-12-19T08:05:42.198Z,93.60
2018-12-19T08:08:10.086Z,93.70
2018-12-19T08:10:38.059Z,93.40
2018-12-19T08:13:05.985Z,93.20
2018-12-19T08:15:33.781Z,93.00
2018-12-19T08:18:01.616Z,93.10
2018-12-19T08:20:29.955Z,93.40
2018-12-19T08:22:57.841Z,92.80
2018-12-19T08:25:25.742Z,92.60
2018-12-19T08:27:53.693Z,94.10
2018-12-19T08:30:21.637Z,93.60
2018-12-19T08:32:49.464Z,93.10
2018-12-19T08:35:17.284Z,92.70
2018-12-19T08:37:45.172Z,92.20
2018-12-19T08:40:12.969Z,92.20
2018-12-19T08:42:40.811Z,93.10
2018-12-19T08:45:09.081Z,92.60
2018-12-19T08:47:36.993Z,92.60
2018-12-19T08:50:07.794Z,92.30
2018-12-19T08:52:35.578Z,92.50
2018-12-19T08:55:03.791Z,92.10
2018-12-19T08:57:32.703Z,91.80
2018-12-19T09:00:00.625Z,91.60
2018-12-19T09:02:28.555Z,91.90
2018-12-19T09:04:56.318Z,91.00
2018-12-19T09:07:24.193Z,91.80
2018-12-19T09:09:52.092Z,91.10
2018-12-19T09:12:19.928Z,91.50
2018-12-19T09:14:47.898Z,92.30
2018-12-19T09:17:16.186Z,91.50
2018-12-19T09:19:44.316Z,91.20
2018-12-19T09:22:12.453Z,91.10
2018-12-19T09:24:40.205Z,90.50
2018-12-19T09:27:08.249Z,90.50
2018-12-19T09:29:36.101Z,90.50
2018-12-19T09:32:05.766Z,89.20
2018-12-19T09:34:33.584Z,90.20
2018-12-19T09:37:01.583Z,90.80
2018-12-19T09:39:30.401Z,90.40
2018-12-19T09:41:58.344Z,90.30
2018-12-19T09:44:26.288Z,89.40
2018-12-19T09:46:54.084Z,90.20
2018-12-19T09:49:24.927Z,91.10
2018-12-19T09:51:52.728Z,91.00
2018-12-19T09:54:21.708Z,90.10
2018-12-19T09:56:49.496Z,90.20
2018-12-19T09:59:17.661Z,88.90
2018-12-19T10:01:45.471Z,87.40
2018-12-19T10:04:13.264Z,85.90
2018-12-19T10:06:41.123Z,85.20
2018-12-19T10:09:14.841Z,84.50
2018-12-19T10:11:40.256Z,84.10
2018-12-19T10:14:08.405Z,85.90
2018-12-19T10:16:36.224Z,84.90
2018-12-19T10:19:04.146Z,86.60
2018-12-19T10:21:32.817Z,88.60
2018-12-19T10:24:00.777Z,88.10
2018-12-19T10:26:28.649Z,87.10
2018-12-19T10:28:56.524Z,86.50
2018-12-19T10:31:24.583Z,86.80
2018-12-19T10:33:52.356Z,87.30
2018-12-19T10:36:24.774Z,88.00
2018-12-19T10:38:52.852Z,87.60
2018-12-19T10:41:25.457Z,88.40
2018-12-19T10:43:54.113Z,86.90
2018-12-19T10:46:22.035Z,86.00
2018-12-19T10:48:49.864Z,83.30
2018-12-19T10:51:17.717Z,82.10
2018-12-19T10:53:45.669Z,84.20
2018-12-19T10:56:13.496Z,83.60
2018-12-19T10:58:41.309Z,82.30
2018-12-19T11:01:09.333Z,81.80
2018-12-19T11:03:37.342Z,81.20
2018-12-19T11:06:05.468Z,80.40
2018-12-19T11:08:33.465Z,82.70
2018-12-19T11:11:01.390Z,82.60
2018-12-19T11:13:29.265Z,82.60
2018-12-19T11:15:57.173Z,83.20
2018-12-19T11:18:24.968Z,84.80
2018-12-19T11:20:52.926Z,84.70
2018-12-19T11:23:20.749Z,84.60
2018-12-19T11:25:48.677Z,83.30
2018-12-19T11:28:16.899Z,81.90
2018-12-19T11:30:44.956Z,82.00
2018-12-19T11:33:12.831Z,82.40
2018-12-19T11:35:40.617Z,83.40
2018-12-19T11:38:08.513Z,83.10
2018-12-19T11:40:36.294Z,83.20
2018-12-19T11:43:05.011Z,82.30
2018-12-19T11:45:33.860Z,83.50
2018-12-19T11:48:04.871Z,81.80
2018-12-19T11:50:32.800Z,80.10
2018-12-19T11:53:00.566Z,79.40
2018-12-19T11:55:28.753Z,78.30
2018-12-19T11:57:56.647Z,77.90
2018-12-19T12:00:24.442Z,76.80
2018-12-19T12:02:52.356Z,78.00
2018-12-19T12:05:20.131Z,77.50
2018-12-19T12:07:48.047Z,77.20
2018-12-19T12:10:15.852Z,77.10
2018-12-19T12:12:43.641Z,77.20
2018-12-19T12:15:11.623Z,78.00
2018-12-19T12:17:39.532Z,78.70
2018-12-19T12:20:08.173Z,78.70
2018-12-19T12:22:36.302Z,78.80
2018-12-19T12:25:05.127Z,81.40
2018-12-19T12:27:33.116Z,81.30
2018-12-19T12:30:01.132Z,82.10
2018-12-19T12:32:29.197Z,82.90
2018-12-19T12:34:57.340Z,82.10
2018-12-19T12:37:25.129Z,83.10
2018-12-19T12:39:53.232Z,83.80
2018-12-19T12:45:07.959Z,84.20
2018-12-19T12:47:35.947Z,83.70
2018-12-19T12:50:04.817Z,83.80
2018-12-19T12:52:32.821Z,83.60
2018-12-19T12:55:00.890Z,84.00
2018-12-19T12:57:28.801Z,84.40
2018-12-19T12:59:56.621Z,84.60
2018-12-19T13:02:24.389Z,85.10
2018-12-19T13:04:52.155Z,85.00
2018-12-19T13:07:20.148Z,86.10
2018-12-19T13:09:47.985Z,86.90
2018-12-19T13:12:15.956Z,87.90
2018-12-19T13:14:44.193Z,87.40
2018-12-19T13:17:11.985Z,88.70
2018-12-19T13:19:40.067Z,87.20
2018-12-19T13:22:08.040Z,88.90
2018-12-19T13:24:36.202Z,88.30
2018-12-19T13:27:04.125Z,87.20
2018-12-19T13:29:31.909Z,86.80
2018-12-19T13:32:00.134Z,86.70
2018-12-19T13:34:28.081Z,86.70
2018-12-19T13:36:56.156Z,86.80
2018-12-19T13:39:23.962Z,87.00
2018-12-19T13:41:51.813Z,87.00
2018-12-19T13:44:29.066Z,87.00
2018-12-19T13:47:01.520Z,87.30
2018-12-19T13:49:30.953Z,89.10
2018-12-19T13:52:06.082Z,88.00
2018-12-19T13:54:34.485Z,87.50
2018-12-19T13:57:02.368Z,87.60
2018-12-19T13:59:30.226Z,88.10
2018-12-19T14:01:58.279Z,88.30
2018-12-19T14:04:26.273Z,88.70
2018-12-19T14:06:54.310Z,89.40
2018-12-19T14:09:22.166Z,89.70
2018-12-19T14:11:50.151Z,89.80
2018-12-19T14:14:18.843Z,89.70
2018-12-19T14:16:48.278Z,90.00
2018-12-19T14:19:16.485Z,90.00
2018-12-19T14:21:44.643Z,90.10
2018-12-19T14:24:12.656Z,90.10
2018-12-19T14:26:40.471Z,90.20
2018-12-19T14:29:08.373Z,90.60
2018-12-19T14:31:36.907Z,90.70
2018-12-19T14:34:04.710Z,90.70
2018-12-19T14:36:32.717Z,90.80
2018-12-19T14:39:00.679Z,91.00
2018-12-19T14:41:28.967Z,91.10
2018-12-19T14:43:56.972Z,91.30
2018-12-19T14:46:25.072Z,91.50
2018-12-19T14:48:52.878Z,91.70
2018-12-19T14:51:21.108Z,91.70
2018-12-19T14:53:49.502Z,91.70
2018-12-19T14:56:17.319Z,91.70
2018-12-19T14:58:45.161Z,91.80
2018-12-19T15:01:13.263Z,91.90
2018-12-19T15:03:41.617Z,91.90
2018-12-19T15:06:09.901Z,92.10
2018-12-19T15:08:37.864Z,92.10
2018-12-19T15:11:05.877Z,92.20
2018-12-19T15:13:33.832Z,92.20
2018-12-19T15:16:03.346Z,92.30
2018-12-19T15:18:31.668Z,92.30
2018-12-19T15:21:00.294Z,92.40
2018-12-19T15:23:28.281Z,92.30
2018-12-19T15:25:56.492Z,92.30
2018-12-19T15:28:27.728Z,92.40
2018-12-19T15:30:57.220Z,92.40
2018-12-19T15:33:25.252Z,92.60
2018-12-19T15:35:54.084Z,92.80
2018-12-19T15:38:22.083Z,92.90
2018-12-19T15:40:49.884Z,93.10
2018-12-19T15:43:21.971Z,93.10
2018-12-19T15:45:51.114Z,93.10
2018-12-19T15:48:20.695Z,93.00
2018-12-19T15:50:49.701Z,93.00
2018-12-19T15:53:17.604Z,93.10
2018-12-19T15:55:45.445Z,93.10
2018-12-19T15:58:13.323Z,93.20
2018-12-19T16:00:42.688Z,93.20
2018-12-19T16:03:10.536Z,93.20
2018-12-19T16:05:38.545Z,93.30
2018-12-19T16:08:07.841Z,93.30
2018-12-19T16:10:40.144Z,93.30
2018-12-19T16:13:10.633Z,93.30
2018-12-19T16:15:45.573Z,93.30
2018-12-19T16:18:13.837Z,93.40
2018-12-19T16:20:48.029Z,93.50
2018-12-19T16:23:15.823Z,93.40
2018-12-19T16:25:43.764Z,93.40
2018-12-19T16:28:11.608Z,93.40
2018-12-19T16:30:39.453Z,93.30
2018-12-19T16:33:07.579Z,93.50
2018-12-19T16:35:37.806Z,93.50
2018-12-19T16:38:05.922Z,93.50
2018-12-19T16:40:34.358Z,93.50
2018-12-19T16:43:02.341Z,93.50
2018-12-19T16:45:30.262Z,93.50
2018-12-19T16:47:58.113Z,93.40
2018-12-19T16:50:25.941Z,93.40
2018-12-19T16:53:00.429Z,93.30
2018-12-19T16:55:28.234Z,93.30
2018-12-19T16:57:56.090Z,93.30
2018-12-19T17:00:23.925Z,93.30
2018-12-19T17:02:51.887Z,93.40
2018-12-19T17:05:19.715Z,93.40
2018-12-19T17:07:47.696Z,93.50
2018-12-19T17:10:15.557Z,93.60
2018-12-19T17:12:43.713Z,93.70
2018-12-19T17:15:11.533Z,93.60
2018-12-19T17:17:39.524Z,93.50
2018-12-19T17:20:07.660Z,93.50
2018-12-19T17:22:35.555Z,93.50
2018-12-19T17:25:03.677Z,93.60
2018-12-19T17:27:31.548Z,93.70
2018-12-19T17:29:59.411Z,93.70
2018-12-19T17:32:27.581Z,93.60
2018-12-19T17:34:55.539Z,93.60
2018-12-19T17:37:26.903Z,93.50
2018-12-19T17:39:54.693Z,93.40
2018-12-19T17:42:22.540Z,93.50
2018-12-19T17:44:50.328Z,93.50
2018-12-19T17:47:18.170Z,93.60
2018-12-19T17:49:46.243Z,93.70
2018-12-19T17:52:14.123Z,93.90
2018-12-19T17:54:41.937Z,94.10
2018-12-19T17:57:09.771Z,94.20
2018-12-19T17:59:37.798Z,95.10
2018-12-19T18:02:06.119Z,95.20
2018-12-19T18:04:34.183Z,95.00
2018-12-19T18:07:02.295Z,94.90
2018-12-19T18:09:30.202Z,94.80
2018-12-19T18:11:58.268Z,94.80
2018-12-19T18:14:26.253Z,94.60
2018-12-19T18:16:54.283Z,94.50
2018-12-19T18:19:24.576Z,94.50
2018-12-19T18:21:52.680Z,94.40
2018-12-19T18:24:21.970Z,94.30
2018-12-19T18:26:50.173Z,94.30
2018-12-19T18:29:19.097Z,94.20
2018-12-19T18:31:47.114Z,94.10
2018-12-19T18:34:15.141Z,94.00
2018-12-19T18:36:43.182Z,94.00
2018-12-19T18:39:25.933Z,94.00
2018-12-19T18:41:50.454Z,94.00
2018-12-19T18:44:18.899Z,94.10
2018-12-19T18:46:46.708Z,94.40
2018-12-19T18:49:14.662Z,94.30
2018-12-19T18:51:42.954Z,94.20
2018-12-19T18:54:14.851Z,94.00
2018-12-19T18:56:43.258Z,93.80
2018-12-19T18:59:11.895Z,93.90
2018-12-19T19:01:40.088Z,94.20
2018-12-19T19:04:08.077Z,94.30
2018-12-19T19:06:36.914Z,94.20
2018-12-19T19:09:05.752Z,94.20
2018-12-19T19:11:35.661Z,94.10
2018-12-19T19:14:04.674Z,93.90
2018-12-19T19:16:32.668Z,93.70
2018-12-19T19:19:00.516Z,93.90
2018-12-19T19:21:28.755Z,93.80
2018-12-19T19:23:57.748Z,93.80
2018-12-19T19:26:25.639Z,93.70
2018-12-19T19:28:53.633Z,93.80
2018-12-19T19:31:21.805Z,93.60
2018-12-19T19:33:49.726Z,93.70
2018-12-19T19:36:17.797Z,93.70
2018-12-19T19:41:19.405Z,93.60
2018-12-19T19:43:47.337Z,93.60
2018-12-19T19:46:16.106Z,93.50
2018-12-19T19:48:43.976Z,93.40
2018-12-19T19:51:16.926Z,93.40
2018-12-19T19:53:42.841Z,93.60
2018-12-19T19:58:45.504Z,93.80
2018-12-19T20:01:14.419Z,94.10
2018-12-19T20:03:42.385Z,94.00
2018-12-19T20:06:11.217Z,94.10
2018-12-19T20:08:39.136Z,94.00
2018-12-19T20:11:07.288Z,93.80
2018-12-19T20:13:35.397Z,93.80
2018-12-19T20:16:03.436Z,93.70
2018-12-19T20:18:31.449Z,93.70
2018-12-19T20:24:09.101Z,93.60
2018-12-19T20:26:38.123Z,93.80
2018-12-19T20:29:08.922Z,93.60
2018-12-19T20:31:38.122Z,93.50
2018-12-19T20:34:06.925Z,93.10
2018-12-19T20:36:34.997Z,93.20
2018-12-19T20:39:05.910Z,93.10
2018-12-19T20:41:37.465Z,93.10
2018-12-19T20:44:06.858Z,93.30
2018-12-19T20:46:34.777Z,93.20
2018-12-19T20:49:02.721Z,93.20
2018-12-19T20:51:30.693Z,93.40
2018-12-19T20:53:58.737Z,93.80
2018-12-19T20:56:26.806Z,93.80
2018-12-19T20:58:55.115Z,93.80
2018-12-19T21:01:23.302Z,93.80
2018-12-19T21:03:51.204Z,93.80
2018-12-19T21:06:19.262Z,93.40
2018-12-19T21:08:47.334Z,93.50
2018-12-19T21:11:15.326Z,93.70
2018-12-19T21:13:46.673Z,93.60
2018-12-19T21:16:25.245Z,93.50
2018-12-19T21:18:53.226Z,93.50
2018-12-19T21:21:21.096Z,93.40
2018-12-19T21:23:49.122Z,93.40
2018-12-19T21:26:17.356Z,93.30
2018-12-19T21:28:45.304Z,93.30
2018-12-19T21:31:13.328Z,93.30
2018-12-19T21:33:41.154Z,93.20
2018-12-19T21:36:09.556Z,93.20
2018-12-19T21:38:37.539Z,93.20
2018-12-19T21:41:05.471Z,93.20
2018-12-19T21:43:33.328Z,93.30
2018-12-19T21:46:01.568Z,93.30
2018-12-19T21:48:29.358Z,93.30
2018-12-19T21:50:57.372Z,93.20
2018-12-19T21:53:25.203Z,93.30
2018-12-19T21:55:54.150Z,93.30
2018-12-19T21:58:22.057Z,93.40
2018-12-19T22:00:50.379Z,93.50
2018-12-19T22:03:18.409Z,93.40
2018-12-19T22:05:46.478Z,93.30
2018-12-19T22:08:16.052Z,93.30
2018-12-19T22:10:44.262Z,93.30
2018-12-19T22:13:12.228Z,93.30
2018-12-19T22:15:40.185Z,93.50
2018-12-19T22:18:14.143Z,93.40
2018-12-19T22:20:42.348Z,93.50
2018-12-19T22:23:10.767Z,93.30
2018-12-19T22:25:38.746Z,93.20
2018-12-19T22:28:07.474Z,93.20
2018-12-19T22:30:35.381Z,93.10
2018-12-19T22:33:03.451Z,93.10
2018-12-19T22:35:31.353Z,93.20
2018-12-19T22:37:59.187Z,93.10
2018-12-19T22:40:27.402Z,93.00
2018-12-19T22:42:55.449Z,93.10
2018-12-19T22:45:23.300Z,93.10
2018-12-19T22:47:51.277Z,93.10
2018-12-19T22:50:19.357Z,93.00
2018-12-19T22:52:47.393Z,93.00
2018-12-19T22:55:15.622Z,93.00
2018-12-19T22:57:43.673Z,92.90
2018-12-19T23:00:15.936Z,92.90
2018-12-19T23:02:51.838Z,92.90
2018-12-19T23:05:25.833Z,92.80
2018-12-19T23:07:53.884Z,92.90
2018-12-19T23:10:21.754Z,92.90
2018-12-19T23:12:49.813Z,92.80
2018-12-19T23:15:19.742Z,92.90
2018-12-19T23:17:58.469Z,92.90
2018-12-19T23:20:32.541Z,92.90
2018-12-19T23:23:06.896Z,92.90
2018-12-19T23:25:41.228Z,93.00
2018-12-19T23:28:11.273Z,92.90
2018-12-19T23:30:39.762Z,92.80
2018-12-19T23:33:07.723Z,92.90
2018-12-19T23:35:35.608Z,92.80
2018-12-19T23:38:03.837Z,92.80
2018-12-19T23:40:31.901Z,92.80
2018-12-19T23:42:59.972Z,92.90
2018-12-19T23:45:27.840Z,92.80
2018-12-19T23:47:55.849Z,92.70
2018-12-19T23:50:24.054Z,92.70
2018-12-19T23:52:52.063Z,92.80
2018-12-19T23:55:19.994Z,92.80
2018-12-19T23:57:47.824Z,92.70
